createdAt,value
2022-11-26T00:00:19.162Z,10.14
2022-11-26T00:06:27.633Z,10.12
2022-11-26T00:12:17.485Z,10.15
2022-11-26T00:18:05.762Z,10.16
2022-11-26T00:23:53.986Z,10.22
2022-11-26T00:29:40.785Z,10.20
2022-11-26T00:35:27.945Z,10.11
2022-11-26T00:41:21.835Z,10.15
2022-11-26T00:47:10.188Z,10.20
2022-11-26T00:52:57.446Z,10.25
2022-11-26T00:58:45.811Z,10.18
2022-11-26T01:04:33.375Z,10.17
2022-11-26T01:10:22.139Z,10.09
2022-11-26T01:16:30.468Z,10.07
2022-11-26T01:22:22.931Z,10.11
2022-11-26T01:28:17.700Z,10.16
2022-11-26T01:34:04.483Z,10.17
2022-11-26T01:39:53.559Z,10.23
2022-11-26T01:45:40.435Z,10.30
2022-11-26T01:51:28.538Z,10.44
2022-11-26T01:57:20.889Z,10.47
2022-11-26T02:03:08.958Z,10.56
2022-11-26T02:08:55.816Z,10.50
2022-11-26T02:14:44.273Z,10.21
2022-11-26T02:20:41.274Z,10.24
2022-11-26T02:26:46.719Z,10.10
2022-11-26T02:33:01.838Z,10.26
2022-11-26T02:38:50.877Z,10.34
2022-11-26T02:44:43.596Z,10.51
2022-11-26T02:50:38.984Z,10.54
2022-11-26T02:56:29.105Z,10.65
2022-11-26T03:02:32.068Z,10.68
2022-11-26T03:08:20.719Z,10.64
2022-11-26T03:14:07.385Z,10.71
2022-11-26T03:19:54.006Z,10.64
2022-11-26T03:25:40.760Z,10.55
2022-11-26T03:31:27.650Z,10.63
2022-11-26T03:37:14.729Z,10.72
2022-11-26T03:43:01.329Z,10.72
2022-11-26T03:48:48.155Z,10.82
2022-11-26T03:54:34.918Z,10.77
2022-11-26T04:00:21.854Z,10.81
2022-11-26T04:06:09.211Z,10.80
2022-11-26T04:11:55.802Z,10.69
2022-11-26T04:17:42.540Z,10.62
2022-11-26T04:23:29.133Z,10.60
2022-11-26T04:29:15.672Z,10.52
2022-11-26T04:35:02.423Z,10.66
2022-11-26T04:40:49.323Z,10.61
2022-11-26T04:46:35.954Z,10.75
2022-11-26T04:52:22.619Z,10.74
2022-11-26T04:58:09.205Z,10.70
2022-11-26T05:03:55.837Z,10.72
2022-11-26T05:09:42.442Z,10.83
2022-11-26T05:15:29.109Z,10.71
2022-11-26T05:21:15.772Z,10.80
2022-11-26T05:27:02.331Z,10.92
2022-11-26T05:32:48.970Z,10.85
2022-11-26T05:38:35.774Z,10.83
2022-11-26T05:44:22.365Z,10.99
2022-11-26T05:50:09.830Z,10.89
2022-11-26T05:55:56.562Z,10.84
2022-11-26T06:01:43.217Z,10.74
2022-11-26T06:07:29.999Z,10.77
2022-11-26T06:13:16.954Z,10.61
2022-11-26T06:19:03.691Z,10.60
2022-11-26T06:24:50.437Z,10.66
2022-11-26T06:30:37.228Z,10.70
2022-11-26T06:36:24.599Z,10.61
2022-11-26T06:42:11.390Z,10.57
2022-11-26T06:47:57.998Z,10.49
2022-11-26T06:53:44.667Z,10.42
2022-11-26T06:59:31.419Z,10.28
2022-11-26T07:05:18.114Z,10.23
2022-11-26T07:11:04.979Z,9.98
2022-11-26T07:16:51.597Z,10.09
2022-11-26T07:22:38.202Z,10.21
2022-11-26T07:28:24.975Z,10.08
2022-11-26T07:34:11.661Z,10.10
2022-11-26T07:39:58.413Z,9.97
2022-11-26T07:45:45.234Z,9.93
2022-11-26T07:51:33.753Z,9.81
2022-11-26T07:57:22.229Z,9.76
2022-11-26T08:03:08.853Z,9.72
2022-11-26T08:08:55.730Z,9.77
2022-11-26T08:14:42.664Z,9.80
2022-11-26T08:20:30.003Z,9.87
2022-11-26T08:26:25.271Z,9.87
2022-11-26T08:32:18.112Z,9.86
2022-11-26T08:38:05.038Z,10.00
2022-11-26T08:44:06.312Z,10.18
2022-11-26T08:49:56.413Z,10.32
2022-11-26T08:55:59.771Z,10.45
2022-11-26T09:01:48.264Z,10.43
2022-11-26T09:07:35.653Z,10.78
2022-11-26T09:13:23.059Z,11.21
2022-11-26T09:19:12.543Z,11.48
2022-11-26T09:24:59.171Z,11.72
2022-11-26T09:30:45.819Z,11.89
2022-11-26T09:36:32.552Z,12.17
2022-11-26T09:42:57.083Z,12.28
2022-11-26T09:48:43.997Z,12.27
2022-11-26T09:54:31.563Z,12.24
2022-11-26T10:00:27.359Z,12.37
2022-11-26T10:06:49.759Z,12.44
2022-11-26T10:19:29.893Z,12.52
2022-11-26T10:25:20.737Z,12.50
2022-11-26T10:31:17.491Z,12.73
2022-11-26T10:37:04.516Z,12.72
2022-11-26T10:42:58.281Z,12.88
2022-11-26T10:48:46.079Z,12.82
2022-11-26T10:54:39.256Z,12.87
2022-11-26T11:00:45.929Z,12.81
2022-11-26T11:06:43.543Z,12.85
2022-11-26T11:12:31.182Z,12.96
2022-11-26T11:18:23.803Z,12.93
2022-11-26T11:24:18.510Z,12.92
2022-11-26T11:30:06.081Z,13.06
2022-11-26T11:35:59.043Z,13.23
2022-11-26T11:41:47.828Z,13.32
2022-11-26T11:47:43.482Z,13.15
2022-11-26T11:53:44.622Z,13.14
2022-11-26T12:00:14.970Z,13.17
2022-11-26T12:06:36.573Z,13.36
2022-11-26T12:12:30.885Z,13.09
2022-11-26T12:18:46.801Z,13.23
2022-11-26T12:24:44.816Z,13.26
2022-11-26T12:31:04.118Z,13.16
2022-11-26T12:37:01.232Z,13.08
2022-11-26T12:43:26.497Z,13.11
2022-11-26T12:49:42.809Z,13.04
2022-11-26T12:55:56.800Z,13.15
2022-11-26T13:01:43.724Z,13.01
2022-11-26T13:07:42.525Z,12.96
2022-11-26T13:14:08.103Z,13.02
2022-11-26T13:20:15.082Z,12.96
2022-11-26T13:26:16.460Z,12.94
2022-11-26T13:32:20.320Z,12.91
2022-11-26T13:38:38.232Z,12.96
2022-11-26T13:44:47.206Z,13.02
2022-11-26T13:50:59.650Z,13.02
2022-11-26T13:57:03.267Z,12.95
2022-11-26T14:03:03.211Z,13.12
2022-11-26T14:08:52.636Z,13.19
2022-11-26T14:14:48.937Z,13.38
2022-11-26T14:20:57.781Z,13.23
2022-11-26T14:26:47.815Z,13.11
2022-11-26T14:32:53.314Z,13.33
2022-11-26T14:38:40.270Z,13.11
2022-11-26T14:44:29.766Z,13.19
2022-11-26T14:50:19.704Z,13.20
2022-11-26T14:56:06.740Z,13.11
2022-11-26T15:01:53.543Z,13.04
2022-11-26T15:07:40.606Z,13.02
2022-11-26T15:13:33.064Z,12.95
2022-11-26T15:19:20.209Z,12.87
2022-11-26T15:25:22.105Z,12.87
2022-11-26T15:31:09.293Z,12.87
2022-11-26T15:36:56.408Z,12.88
2022-11-26T15:42:52.308Z,12.94
2022-11-26T15:48:53.249Z,12.80
2022-11-26T15:55:11.491Z,12.94
2022-11-26T16:01:01.979Z,12.91
2022-11-26T16:06:48.785Z,12.79
2022-11-26T16:12:36.799Z,12.71
2022-11-26T16:18:33.406Z,12.56
2022-11-26T16:24:29.815Z,12.49
2022-11-26T16:30:22.512Z,12.46
2022-11-26T16:36:21.556Z,12.52
2022-11-26T16:42:17.816Z,12.51
2022-11-26T16:48:05.003Z,12.54
2022-11-26T16:53:51.949Z,12.59
2022-11-26T16:59:39.257Z,12.63
2022-11-26T17:05:26.331Z,12.50
2022-11-26T17:11:13.860Z,12.48
2022-11-26T17:17:02.438Z,12.52
2022-11-26T17:22:50.270Z,12.64
2022-11-26T17:28:37.693Z,12.62
2022-11-26T17:34:25.635Z,12.66
2022-11-26T17:40:32.623Z,12.62
2022-11-26T17:46:24.045Z,12.64
2022-11-26T17:52:12.267Z,12.63
2022-11-26T17:57:59.808Z,12.44
2022-11-26T18:03:55.601Z,12.57
2022-11-26T18:09:45.203Z,12.56
2022-11-26T18:15:34.078Z,12.44
2022-11-26T18:21:24.357Z,12.34
2022-11-26T18:27:12.782Z,12.44
2022-11-26T18:33:10.656Z,12.32
2022-11-26T18:39:00.405Z,12.25
2022-11-26T18:44:48.975Z,12.19
2022-11-26T18:50:38.405Z,12.29
2022-11-26T18:56:30.072Z,12.22
2022-11-26T19:02:21.026Z,12.23
2022-11-26T19:08:08.190Z,12.25
2022-11-26T19:13:56.494Z,12.31
2022-11-26T19:19:43.764Z,12.31
2022-11-26T19:25:31.705Z,12.28
2022-11-26T19:31:21.164Z,12.36
2022-11-26T19:37:07.962Z,12.42
2022-11-26T19:42:57.474Z,12.43
2022-11-26T19:48:46.308Z,12.40
2022-11-26T19:54:33.174Z,12.44
2022-11-26T20:00:20.107Z,12.40
2022-11-26T20:06:14.803Z,12.41
2022-11-26T20:12:02.579Z,12.44
2022-11-26T20:17:49.384Z,12.57
2022-11-26T20:23:37.214Z,12.56
2022-11-26T20:29:25.208Z,12.56
2022-11-26T20:35:12.079Z,12.50
2022-11-26T20:40:59.400Z,12.51
2022-11-26T20:46:46.522Z,12.54
2022-11-26T20:52:34.232Z,12.64
2022-11-26T20:58:21.369Z,12.64
2022-11-26T21:04:08.548Z,12.61
2022-11-26T21:09:58.580Z,12.66
2022-11-26T21:15:49.367Z,12.65
2022-11-26T21:21:39.183Z,12.68
2022-11-26T21:27:29.652Z,12.65
2022-11-26T21:33:16.946Z,12.79
2022-11-26T21:39:08.206Z,12.70
2022-11-26T21:44:54.971Z,12.67
2022-11-26T21:50:41.657Z,12.74
2022-11-26T21:56:31.174Z,12.69
2022-11-26T22:02:18.105Z,12.68
2022-11-26T22:08:04.962Z,12.66
2022-11-26T22:13:51.958Z,12.58
2022-11-26T22:21:02.617Z,12.46
2022-11-26T22:26:52.664Z,12.37
2022-11-26T22:32:43.869Z,12.40
2022-11-26T22:47:02.200Z,12.15
2022-11-26T23:01:54.735Z,11.72
2022-11-26T23:07:43.222Z,11.70
2022-11-26T23:13:30.208Z,11.59
2022-11-26T23:19:26.661Z,11.59
2022-11-26T23:25:52.841Z,11.54
2022-11-26T23:31:42.786Z,11.44
2022-11-26T23:37:29.894Z,11.42
2022-11-26T23:43:16.772Z,11.37
2022-11-26T23:49:06.594Z,11.32
2022-11-26T23:54:56.073Z,11.40
